Flight Track Log - Related Links

Times and Time Zones

All times are in EDT time to prevent confusion due to time zone crossing. See the CHH7124 flight status page for this flight to view local times or setup timezone preferences in your user account.

Time Position Orientation Groundspeed Altitude Reporting Facility
EDT Latitude Longitude Course Direction KTS MPH feet Rate Location/Type
Wed 10:56:00 AM 44.4921 129.4482 250° West  Level Estimated
Wed 10:57:00 AM 44.4599 129.3275 250° West  Level Estimated
Wed 10:58:00 AM 44.4276 129.2070 249° West  Level Estimated
Wed 10:59:00 AM 44.3952 129.0866 249° West  Level Estimated
Wed 11:00:00 AM 44.3627 128.9664 249° West  Level Estimated
Wed 11:01:00 AM 44.3300 128.8462 249° West  Level Estimated
Wed 11:02:00 AM 44.2972 128.7262 249° West  Level Estimated
Wed 11:03:00 AM 44.2643 128.6064 249° West  Level Estimated
Wed 11:04:00 AM 44.2313 128.4867 249° West  Level Estimated
Wed 11:05:00 AM 44.1982 128.3671 249° West  Level Estimated
Wed 11:06:00 AM 44.1649 128.2476 249° West  Level Estimated
Wed 11:07:00 AM 44.1315 128.1283 249° West  Level Estimated
Wed 11:08:00 AM 44.0979 128.0091 249° West  Level Estimated
Wed 11:09:00 AM 44.0643 127.8901 249° West  Level Estimated
Wed 11:10:00 AM 44.0305 127.7712 248° West  Level Estimated
Wed 11:11:00 AM 43.9966 127.6524 248° West  Level Estimated
Wed 11:12:00 AM 43.9626 127.5338 248° West  Level Estimated
Wed 11:13:00 AM 43.9284 127.4153 248° West  Level Estimated
Wed 11:14:00 AM 43.8942 127.2969 248° West  Level Estimated
Wed 11:15:00 AM 43.8598 127.1787 248° West  Level Estimated
Wed 11:16:00 AM 43.8253 127.0606 248° West  Level Estimated
Wed 11:17:00 AM 43.7906 126.9426 248° West  Level Estimated
Wed 11:18:00 AM 43.7562 126.8258 248° West  Level Estimated
Wed 11:19:00 AM 43.7216 126.7091 248° West  Level Estimated
Wed 11:20:00 AM 43.6869 126.5926 248° West  Level Estimated
Wed 11:21:00 AM 43.6521 126.4762 248° West  Level Estimated
Wed 11:22:00 AM 43.6172 126.3599 247° West  Level Estimated
Wed 11:23:00 AM 43.5821 126.2438 247° West  Level Estimated
Wed 11:24:00 AM 43.5470 126.1278 247° West  Level Estimated
Wed 11:25:00 AM 43.5117 126.0120 247° West  Level Estimated
Wed 11:26:00 AM 43.4763 125.8962 247° West  Level Estimated
Wed 11:27:00 AM 43.4408 125.7807 247° West  Level Estimated
Wed 11:28:00 AM 43.4052 125.6652 247° West  Level Estimated
Wed 11:29:00 AM 43.3694 125.5499 247° West  Level Estimated
Wed 11:30:00 AM 43.3335 125.4347 247° West  Level Estimated
Wed 11:31:00 AM 43.2976 125.3197 247° West  Level Estimated
Wed 11:32:00 AM 43.2615 125.2048 247° West  Level Estimated
Wed 11:33:00 AM 43.2253 125.0900 247° West  Level Estimated
Wed 11:34:00 AM 43.1889 124.9754 247° West  Level Estimated
Wed 11:35:00 AM 43.1525 124.8609 246° West  Level Estimated
Wed 11:36:00 AM 43.1160 124.7465 246° West  Level Estimated
Wed 11:37:00 AM 43.0793 124.6323 246° West  Level Estimated
Wed 11:38:00 AM 43.0425 124.5182 246° West  Level Estimated
Wed 11:39:00 AM 43.0056 124.4042 246° West  Level Estimated
Wed 11:40:00 AM 42.9686 124.2904 246° West  Level Estimated
Wed 11:41:00 AM 42.9315 124.1768 246° West  Level Estimated
Wed 11:42:00 AM 42.8943 124.0632 246° West  Level Estimated
Wed 11:43:00 AM 42.8569 123.9498 246° West  Level Estimated
Wed 11:44:00 AM 42.8195 123.8365 246° West  Level Estimated
Wed 11:45:00 AM 42.7819 123.7234 246° West  Level Estimated
Wed 11:46:00 AM 42.7442 123.6104 246° West  Level Estimated
Wed 11:47:00 AM 42.7065 123.4976 246° West  Level Estimated
Wed 11:48:00 AM 42.6685 123.3849 245° Southwest  Level Estimated
Wed 11:49:00 AM 42.6305 123.2723 245° Southwest  Level Estimated
Wed 11:50:00 AM 42.5924 123.1598 245° Southwest  Level Estimated
Wed 11:51:00 AM 42.5542 123.0475 245° Southwest  Level Estimated
Wed 11:52:00 AM 42.5159 122.9354 245° Southwest  Level Estimated
Wed 11:53:00 AM 42.4774 122.8233 245° Southwest  Level Estimated
Wed 11:54:00 AM 42.4389 122.7115 245° Southwest  Level Estimated
Wed 11:55:00 AM 42.4002 122.5997 245° Southwest  Level Estimated
Wed 11:56:00 AM 42.3614 122.4881 245° Southwest  Level Estimated
Wed 11:57:00 AM 42.3225 122.3766 245° Southwest  Level Estimated
Wed 11:58:00 AM 42.2836 122.2653 245° Southwest  Level Estimated
Wed 11:59:00 AM 42.2445 122.1541 245° Southwest  Level Estimated
Wed 12:00:00 PM 42.2053 122.0430 245° Southwest  Level Estimated
Wed 12:01:00 PM 42.1660 121.9321 244° Southwest  Level Estimated
Wed 12:02:00 PM 42.1265 121.8213 244° Southwest  Level Estimated
Wed 12:03:00 PM 42.0870 121.7107 244° Southwest  Level Estimated
Wed 12:04:00 PM 42.0474 121.6002 244° Southwest  Level Estimated
Wed 12:05:00 PM 42.0076 121.4898 244° Southwest  Level Estimated
Wed 12:06:00 PM 41.9678 121.3795 244° Southwest  Level Estimated
Wed 12:07:00 PM 41.9279 121.2694 244° Southwest  Level Estimated
Wed 12:08:00 PM 41.8878 121.1595 244° Southwest  Level Estimated
Wed 12:09:00 PM 41.8476 121.0497 244° Southwest  Level Estimated
Wed 12:10:00 PM 41.8074 120.9400 244° Southwest  Level Estimated
Wed 12:11:00 PM 41.7670 120.8305 244° Southwest  Level Estimated
Wed 12:12:00 PM 41.7266 120.7210 244° Southwest  Level Estimated
Wed 12:13:00 PM 41.6860 120.6118 244° Southwest  Level Estimated
Wed 12:14:00 PM 41.6453 120.5026 244° Southwest  Level Estimated
Wed 12:15:00 PM 41.6045 120.3936 243° Southwest  Level Estimated
Wed 12:16:00 PM 41.5637 120.2848 243° Southwest  Level Estimated
Wed 12:17:00 PM 41.5227 120.1761 243° Southwest  Level Estimated
Wed 12:18:00 PM 41.4816 120.0675 243° Southwest  Level Estimated
Wed 12:18:48 PM 41.2330 118.5790 243° Southwest 384 442 32,100  Level FlightAware ADS-B
Wed 12:19:00 PM 41.4404 119.9591 243° Southwest  Level Estimated
Wed 12:19:24 PM 41.2210 118.5000 259° West 384 442 32,100  Level FlightAware ADS-B
Wed 12:19:56 PM 41.2040 118.4240 253° West 389 448 31,700 -1,412 Descending FlightAware ADS-B
Wed 12:20:32 PM 41.1790 118.3430 248° West 394 453 30,500 -2,000 Descending FlightAware ADS-B
Wed 12:21:08 PM 41.1550 118.2650 248° West 396 456 29,300 -1,941 Descending FlightAware ADS-B
Wed 12:21:40 PM 41.1320 118.1920 247° West 395 455 28,300 -1,909 Descending FlightAware ADS-B
Wed 12:22:14 PM 41.1080 118.1160 247° West 403 464 27,200 -2,000 Descending FlightAware ADS-B
Wed 12:22:55 PM 41.0780 118.0220 247° West 402 463 25,800 -2,000 Descending FlightAware ADS-B
Wed 12:23:26 PM 41.0560 117.9520 247° West 397 457 24,800 -2,029 Descending FlightAware ADS-B
Wed 12:24:03 PM 41.0300 117.8680 248° West 392 451 23,500 -2,055 Descending FlightAware ADS-B
Wed 12:24:39 PM 41.0050 117.7890 247° West 381 438 22,300 -2,000 Descending FlightAware ADS-B
Wed 12:25:12 PM 40.9820 117.7200 246° West 375 432 21,200 -1,909 Descending FlightAware ADS-B
Wed 12:25:45 PM 40.9610 117.6540 247° West 371 427 20,200 -2,000 Descending FlightAware ADS-B
Wed 12:26:21 PM 40.9360 117.5760 247° West 370 426 18,900 -2,027 Descending FlightAware ADS-B
Wed 12:26:59 PM 40.9110 117.4980 247° West 372 428 17,700 -1,973 Descending FlightAware ADS-B
Wed 12:27:34 PM 40.8870 117.4230 247° West 373 429 16,500 -2,060 Descending FlightAware ADS-B
Wed 12:28:06 PM 40.8660 117.3570 247° West 372 428 15,400 -1,114 Descending FlightAware ADS-B
Wed 12:28:44 PM 40.8440 117.2910 246° West 368 423 15,200 -2,000 Descending FlightAware ADS-B
Wed 12:29:12 PM 40.8230 117.2250 247° West 353 406 13,200 -1,765 Descending FlightAware ADS-B
Wed 12:29:52 PM 40.8000 117.1580 246° West 353 406 13,200 -857 Level FlightAware ADS-B
Wed 12:30:50 PM 40.7660 117.0510 247° West 341 392 11,800 -913 Descending FlightAware ADS-B
Wed 12:31:24 PM 40.7480 116.9960 247° West 341 392 11,800  Level FlightAware ADS-B
Wed 12:31:30 PM 40.7220 116.9710 216° Southwest 342 394 11,800  Level FlightAware ADS-B
Wed 12:32:05 PM 40.6780 116.9460 203° Southwest 344 396 11,800  Level FlightAware ADS-B
Wed 12:32:57 PM 40.6000 116.9020 203° Southwest 345 397 11,800  Level FlightAware ADS-B
Wed 12:33:32 PM 40.5440 116.8690 204° Southwest 346 398 11,800  Level FlightAware ADS-B
Wed 12:34:04 PM 40.4950 116.8420 203° Southwest 345 397 11,800  Level FlightAware ADS-B
Wed 12:34:39 PM 40.4470 116.8150 203° Southwest 347 399 11,800 -329 Level FlightAware ADS-B
Wed 12:35:17 PM 40.3880 116.7810 204° Southwest 345 397 11,400 -822 Descending FlightAware ADS-B
Wed 12:35:52 PM 40.3390 116.7550 202° Southwest 341 392 10,800 -1,071 Descending FlightAware ADS-B
Wed 12:36:13 PM 40.3050 116.7470 190° South 344 396 10,400 -1,000 Descending FlightAware ADS-B
Wed 12:36:46 PM 40.2530 116.7440 183° South 342 394 9,900 -1,000 Descending FlightAware ADS-B
Wed 12:37:07 PM 40.2190 116.7430 181° South 326 375 9,500 -973 Descending FlightAware ADS-B
Wed 12:37:23 PM 40.1970 116.7420 182° South 313 360 9,300 -1,029 Descending FlightAware ADS-B
Wed 12:37:42 PM 40.1690 116.7410 182° South 302 348 8,900 -1,050 Descending FlightAware ADS-B
Wed 12:38:03 PM 40.1410 116.7390 183° South 291 335 8,600 -1,143 Descending FlightAware ADS-B
Wed 12:38:24 PM 40.1130 116.7380 182° South 288 331 8,100 -1,538 Descending FlightAware ADS-B
Wed 12:38:42 PM 40.0880 116.7370 182° South 288 331 7,600 -1,500 Descending FlightAware ADS-B
Wed 12:39:00 PM 40.0640 116.7360 182° South 287 330 7,200 -1,500 Descending FlightAware ADS-B
Wed 12:39:34 PM 40.0200 116.7400 176° South 281 323 6,300 -1,393 Descending FlightAware ADS-B
Wed 12:39:56 PM 39.9920 116.7440 174° South 267 307 5,900 -1,000 Descending FlightAware ADS-B
Wed 12:40:16 PM 39.9700 116.7470 174° South 255 293 5,600 -1,024 Descending FlightAware ADS-B
Wed 12:40:37 PM 39.9440 116.7510 173° South 244 281 5,200 -1,067 Descending FlightAware ADS-B
Wed 12:41:01 PM 39.9180 116.7550 173° South 231 266 4,800 -1,091 Descending FlightAware ADS-B
Wed 12:41:21 PM 39.8980 116.7580 173° South 220 253 4,400 -1,059 Descending FlightAware ADS-B
Wed 12:41:52 PM 39.8710 116.7560 183° South 202 232 3,900 -526 Descending FlightAware ADS-B
Wed 12:42:18 PM 39.8500 116.7510 190° South 202 232 3,900 -1,000 Level FlightAware ADS-B
Wed 12:42:22 PM 39.8700 116.7550 North 197 227 3,400 -2,000 Descending FlightAware ADS-B
Wed 12:42:39 PM 39.8590 116.7050 254° West 186 214 3,200 -267 Descending FlightAware ADS-B
Wed 12:43:07 PM 39.8580 116.6790 267° West 186 214 3,200 -800 Level FlightAware ADS-B
Wed 12:43:39 PM 39.8590 116.7050 87° East 184 212 2,400 -800 Descending FlightAware ADS-B
Wed 12:44:07 PM 39.8580 116.6790 267° West 184 212 2,400 -560 Level FlightAware ADS-B
Wed 12:44:54 PM 39.9200 116.6000 316° Northwest 181 208 1,700 -737 Descending FlightAware ADS-B
Wed 12:45:04 PM 39.9260 116.5980 346° North 182 209 1,700  Level FlightAware ADS-B
Wed 12:45:23 PM 39.9420 116.5950 352° North 182 209 1,700  Level FlightAware ADS-B
Wed 12:45:45 PM 39.9630 116.5920 354° North 179 206 1,700  Level FlightAware ADS-B
Wed 12:46:05 PM 39.9790 116.5890 352° North 169 194 1,700 -558 Level FlightAware ADS-B
Wed 12:46:28 PM 39.9960 116.5860 352° North 161 185 1,300 -923 Descending FlightAware ADS-B
Wed 12:46:44 PM 40.0080 116.5850 356° North 157 181 1,100 -267 Descending FlightAware ADS-B
Wed 12:47:13 PM 40.0260 116.5820 353° North 157 181 1,100 -913 Level FlightAware ADS-B
Wed 12:47:30 PM 40.0230 116.5820 180° South 153 176 400 -955 Descending FlightAware ADS-B
Wed 12:47:57 PM 40.0390 116.5800 355° North 153 176 400  Level FlightAware ADS-B
Wed 12:48:33 PM 40.0800 116.5730 353° North 154 177 -667 Descending FlightAware ADS-B
Wed 12:51:00 PM 40.0801 116.5846 89° East  Level Estimated

Login

Don't have an account? Register now (free) for customized features, flight alerts, and more!